Time;durP1;ratioP1;P1;durP2;ratioP2;P2;SDS_P1;SDS_P2;PMS_P1;PMS_P2;Temp;Humidity;BMP_temperature;BMP_pressure;BME280_temperature;BME280_humidity;BME280_pressure;Samples;Min_cycle;Max_cycle;Signal;HPM_P1;HPM_P2
2021/12/28 00:02:05;;;;;;;2.20;2.08;;;;;;;;;;5076810;28;20025;-73
2021/12/28 00:04:31;;;;;;;2.63;1.75;;;;;;;;;;5076355;28;20105;-72
2021/12/28 00:06:57;;;;;;;2.33;1.98;;;;;;;;;;5076646;28;20453;-70
2021/12/28 00:09:23;;;;;;;1.92;1.80;;;;;;;;;;5076453;28;20111;-70
2021/12/28 00:11:49;;;;;;;2.00;1.80;;;;;;;;;;5074746;28;20032;-72
2021/12/28 00:14:16;;;;;;;2.15;1.90;;;;;;;;;;5076440;28;20431;-69
2021/12/28 00:19:26;;;;;;;2.67;2.05;;;;;;;;;;5076447;28;20070;-72
2021/12/28 00:21:52;;;;;;;3.95;2.40;;;;;;;;;;5074785;28;20068;-71
2021/12/28 00:24:18;;;;;;;2.45;2.25;;;;;;;;;;5092974;28;20494;-71
2021/12/28 00:26:44;;;;;;;2.47;2.22;;;;;;;;;;5096171;28;20443;-73
2021/12/28 00:29:10;;;;;;;2.67;2.08;;;;;;;;;;5096228;28;20051;-72
2021/12/28 00:31:37;;;;;;;2.53;2.28;;;;;;;;;;5077932;28;20105;-73
2021/12/28 00:34:03;;;;;;;2.05;1.90;;;;;;;;;;5078222;28;20051;-72
2021/12/28 00:36:29;;;;;;;2.72;2.15;;;;;;;;;;5096283;28;20078;-68
2021/12/28 00:38:56;;;;;;;2.38;2.17;;;;;;;;;;5095823;28;20467;-72
2021/12/28 00:41:22;;;;;;;2.20;2.00;;;;;;;;;;5096232;28;20387;-71
2021/12/28 00:43:48;;;;;;;3.67;2.00;;;;;;;;;;5095767;28;20051;-72
2021/12/28 00:46:14;;;;;;;2.85;2.08;;;;;;;;;;5095984;28;20406;-72
2021/12/28 00:48:40;;;;;;;2.10;1.90;;;;;;;;;;5077650;28;20024;-71
2021/12/28 00:51:06;;;;;;;1.90;1.70;;;;;;;;;;5091601;28;20020;-70
2021/12/28 00:53:32;;;;;;;2.25;2.05;;;;;;;;;;5075648;28;20078;-71
2021/12/28 00:55:58;;;;;;;2.42;1.85;;;;;;;;;;5075779;28;20028;-72
2021/12/28 00:58:24;;;;;;;2.38;2.00;;;;;;;;;;5075500;28;20032;-71
2021/12/28 01:00:50;;;;;;;2.45;2.10;;;;;;;;;;5075399;28;20056;-71
2021/12/28 01:03:17;;;;;;;2.30;2.10;;;;;;;;;;5075386;28;20048;-68
2021/12/28 01:05:43;;;;;;;2.80;2.13;;;;;;;;;;5075455;28;20036;-67
2021/12/28 01:08:10;;;;;;;3.03;1.95;;;;;;;;;;5075309;28;20525;-71
2021/12/28 01:10:40;;;;;;;2.30;1.92;;;;;;;;;;5075337;28;20027;-71
2021/12/28 01:13:07;;;;;;;2.42;1.75;;;;;;;;;;5057028;28;20028;-72
2021/12/28 01:15:33;;;;;;;3.13;1.88;;;;;;;;;;5075333;28;20028;-73
2021/12/28 01:17:59;;;;;;;2.30;1.80;;;;;;;;;;5075234;28;20025;-72
2021/12/28 01:20:25;;;;;;;2.38;1.90;;;;;;;;;;5057161;28;20021;-72
2021/12/28 01:22:51;;;;;;;2.08;1.95;;;;;;;;;;5056615;28;20072;-70
2021/12/28 01:25:18;;;;;;;2.65;2.13;;;;;;;;;;5074863;28;20122;-70
2021/12/28 01:27:44;;;;;;;2.75;1.95;;;;;;;;;;5056861;28;20059;-70
2021/12/28 01:30:11;;;;;;;3.28;2.10;;;;;;;;;;5074862;28;20021;-71
2021/12/28 01:32:37;;;;;;;2.20;2.00;;;;;;;;;;5074544;28;20032;-69
2021/12/28 01:35:05;;;;;;;2.47;1.92;;;;;;;;;;5056697;28;20032;-68
2021/12/28 01:37:31;;;;;;;2.00;1.80;;;;;;;;;;5056490;28;20131;-67
2021/12/28 01:39:57;;;;;;;2.80;2.20;;;;;;;;;;5074479;28;20092;-71
2021/12/28 01:42:24;;;;;;;2.80;2.10;;;;;;;;;;5074460;28;20029;-70
2021/12/28 01:44:50;;;;;;;2.65;1.92;;;;;;;;;;5074499;28;20020;-71
2021/12/28 01:47:17;;;;;;;2.38;1.65;;;;;;;;;;5074393;28;20032;-72
2021/12/28 01:49:43;;;;;;;2.55;1.90;;;;;;;;;;5074251;28;20045;-72
2021/12/28 01:52:09;;;;;;;1.95;1.80;;;;;;;;;;5074365;28;20029;-70
2021/12/28 01:54:35;;;;;;;3.83;1.90;;;;;;;;;;5056368;28;20571;-72
2021/12/28 01:57:01;;;;;;;5.50;2.05;;;;;;;;;;5074188;28;20105;-71
2021/12/28 01:59:28;;;;;;;1.73;1.63;;;;;;;;;;5074689;28;20426;-70
2021/12/28 02:01:56;;;;;;;1.83;1.65;;;;;;;;;;5074137;28;20024;-71
2021/12/28 02:04:26;;;;;;;2.50;1.90;;;;;;;;;;5074188;28;20080;-72
2021/12/28 02:06:54;;;;;;;1.65;1.55;;;;;;;;;;5074011;28;20028;-72
2021/12/28 02:09:20;;;;;;;2.55;1.80;;;;;;;;;;5074314;28;20430;-71
2021/12/28 02:11:47;;;;;;;2.40;1.73;;;;;;;;;;5074004;28;20032;-69
2021/12/28 02:14:13;;;;;;;1.95;1.65;;;;;;;;;;5074176;28;20472;-70
2021/12/28 02:16:40;;;;;;;2.35;2.00;;;;;;;;;;5073682;28;20044;-68
2021/12/28 02:19:07;;;;;;;3.70;1.98;;;;;;;;;;5055833;28;20449;-71
2021/12/28 02:21:33;;;;;;;2.33;1.77;;;;;;;;;;5072979;28;20025;-71
2021/12/28 02:24:00;;;;;;;2.63;2.28;;;;;;;;;;5079511;28;20051;-70
2021/12/28 02:26:26;;;;;;;2.38;1.60;;;;;;;;;;5093832;28;20197;-70
2021/12/28 02:28:52;;;;;;;3.03;1.60;;;;;;;;;;5093904;28;20024;-70
2021/12/28 02:31:19;;;;;;;2.40;1.92;;;;;;;;;;5094014;28;20024;-68
2021/12/28 02:33:48;;;;;;;3.40;1.85;;;;;;;;;;5094011;28;20058;-70
2021/12/28 02:36:14;;;;;;;2.10;1.70;;;;;;;;;;5093808;28;20020;-70
2021/12/28 02:38:40;;;;;;;1.80;1.50;;;;;;;;;;5093663;28;20024;-70
2021/12/28 02:41:07;;;;;;;3.05;1.90;;;;;;;;;;5075391;28;20064;-71
2021/12/28 02:43:34;;;;;;;2.65;1.58;;;;;;;;;;5093660;28;20040;-71
2021/12/28 02:46:02;;;;;;;1.98;1.77;;;;;;;;;;5093681;28;20051;-71
2021/12/28 02:48:29;;;;;;;2.00;1.70;;;;;;;;;;5093815;28;20028;-71
2021/12/28 02:51:14;;;;;;;1.98;1.70;;;;;;;;;;5090824;28;20021;-71
2021/12/28 02:53:40;;;;;;;3.30;1.77;;;;;;;;;;5073472;28;20407;-72
2021/12/28 02:56:07;;;;;;;2.97;1.83;;;;;;;;;;5073258;28;20032;-69
2021/12/28 02:58:34;;;;;;;2.60;1.70;;;;;;;;;;5073056;28;20029;-69
2021/12/28 03:01:06;;;;;;;2.38;1.75;;;;;;;;;;5072894;28;20067;-71
2021/12/28 03:03:33;;;;;;;3.85;1.65;;;;;;;;;;5073148;28;20091;-71
2021/12/28 03:06:00;;;;;;;2.47;1.63;;;;;;;;;;5073068;28;20456;-71
2021/12/28 03:08:27;;;;;;;2.63;1.75;;;;;;;;;;5055143;28;20028;-70
2021/12/28 03:10:54;;;;;;;2.30;1.70;;;;;;;;;;5073152;28;20376;-70
2021/12/28 03:13:22;;;;;;;2.40;1.70;;;;;;;;;;5072909;28;20020;-68
2021/12/28 03:15:48;;;;;;;2.63;1.73;;;;;;;;;;5072785;28;20472;-71
2021/12/28 03:18:14;;;;;;;3.90;2.00;;;;;;;;;;5072984;28;20103;-71
2021/12/28 03:20:40;;;;;;;1.98;1.42;;;;;;;;;;5072930;28;20025;-72
2021/12/28 03:23:06;;;;;;;3.58;1.80;;;;;;;;;;5072714;28;20123;-72
2021/12/28 03:25:32;;;;;;;2.45;1.60;;;;;;;;;;5073718;28;20024;-71
2021/12/28 03:28:00;;;;;;;2.58;1.70;;;;;;;;;;5092856;28;20090;-72
2021/12/28 03:30:26;;;;;;;2.53;1.50;;;;;;;;;;5075458;28;20420;-72
2021/12/28 03:32:52;;;;;;;2.42;1.70;;;;;;;;;;5093142;28;20100;-68
2021/12/28 03:35:18;;;;;;;2.83;1.60;;;;;;;;;;5097097;28;20058;-71
2021/12/28 03:37:44;;;;;;;1.70;1.60;;;;;;;;;;5097211;28;20139;-71
2021/12/28 03:40:11;;;;;;;2.00;1.60;;;;;;;;;;5097343;28;20412;-70
2021/12/28 03:42:37;;;;;;;3.58;1.80;;;;;;;;;;5079049;28;20467;-71
2021/12/28 03:45:05;;;;;;;2.05;1.77;;;;;;;;;;5078991;28;20020;-71
2021/12/28 03:47:31;;;;;;;2.53;1.73;;;;;;;;;;5096988;28;20111;-71
2021/12/28 03:49:57;;;;;;;2.67;1.60;;;;;;;;;;5096997;28;20762;-71
2021/12/28 03:52:23;;;;;;;1.80;1.50;;;;;;;;;;5096778;28;20032;-70
2021/12/28 03:54:49;;;;;;;2.40;1.75;;;;;;;;;;5096860;28;20031;-71
2021/12/28 03:57:15;;;;;;;2.40;1.40;;;;;;;;;;5096530;28;20039;-71
2021/12/28 03:59:41;;;;;;;3.13;1.85;;;;;;;;;;5096559;28;20070;-70
2021/12/28 04:02:07;;;;;;;2.53;1.40;;;;;;;;;;5096659;28;20032;-71
2021/12/28 04:04:33;;;;;;;3.30;1.70;;;;;;;;;;5078292;28;20471;-71
2021/12/28 04:06:59;;;;;;;2.22;1.60;;;;;;;;;;5096673;28;20039;-71
2021/12/28 04:12:11;;;;;;;2.50;1.70;;;;;;;;;;5096895;28;20129;-71
2021/12/28 04:14:37;;;;;;;2.53;1.58;;;;;;;;;;5096426;28;20032;-69
2021/12/28 04:17:03;;;;;;;3.08;1.90;;;;;;;;;;5096266;28;20036;-70
2021/12/28 04:19:30;;;;;;;2.38;1.52;;;;;;;;;;5096307;28;20048;-71
2021/12/28 04:21:56;;;;;;;2.40;1.67;;;;;;;;;;5096461;28;20032;-71
2021/12/28 04:24:22;;;;;;;1.92;1.70;;;;;;;;;;5087398;28;20049;-71
2021/12/28 04:26:48;;;;;;;3.17;1.58;;;;;;;;;;5074991;28;20036;-68
2021/12/28 04:29:14;;;;;;;2.78;1.83;;;;;;;;;;5076203;28;20032;-71
2021/12/28 04:31:40;;;;;;;2.45;1.80;;;;;;;;;;5074893;28;20021;-71
2021/12/28 04:34:06;;;;;;;2.80;1.48;;;;;;;;;;5076054;28;20024;-71
2021/12/28 04:36:32;;;;;;;2.97;1.70;;;;;;;;;;5076100;28;20517;-72
2021/12/28 04:38:58;;;;;;;2.70;1.55;;;;;;;;;;5075661;28;20063;-73
2021/12/28 04:41:24;;;;;;;2.25;1.60;;;;;;;;;;5074399;28;20024;-70
2021/12/28 04:43:50;;;;;;;4.85;1.83;;;;;;;;;;5074241;28;20024;-69
2021/12/28 04:46:16;;;;;;;3.45;1.80;;;;;;;;;;5075242;28;20020;-70
2021/12/28 04:48:42;;;;;;;2.97;1.50;;;;;;;;;;5075406;28;20029;-69
2021/12/28 04:51:08;;;;;;;3.22;1.80;;;;;;;;;;5075467;28;20107;-69
2021/12/28 04:53:34;;;;;;;4.28;1.77;;;;;;;;;;5075235;28;20032;-71
2021/12/28 04:56:01;;;;;;;3.20;1.60;;;;;;;;;;5075373;28;20456;-68
2021/12/28 04:58:27;;;;;;;3.25;2.05;;;;;;;;;;5075250;28;20392;-70
2021/12/28 05:00:53;;;;;;;2.25;1.50;;;;;;;;;;5075456;28;20055;-70
2021/12/28 05:03:20;;;;;;;3.65;1.90;;;;;;;;;;5057089;28;20493;-72
2021/12/28 05:05:48;;;;;;;2.50;1.55;;;;;;;;;;5075187;28;20028;-68
2021/12/28 05:08:15;;;;;;;4.28;1.50;;;;;;;;;;5075462;28;20027;-71
2021/12/28 05:10:41;;;;;;;3.83;1.60;;;;;;;;;;5075212;28;20400;-71
2021/12/28 05:13:08;;;;;;;3.28;1.60;;;;;;;;;;5074957;28;20483;-70
2021/12/28 05:15:35;;;;;;;4.50;1.77;;;;;;;;;;5075020;28;20024;-68
2021/12/28 05:18:01;;;;;;;4.75;1.50;;;;;;;;;;5074812;28;20498;-67
2021/12/28 05:20:28;;;;;;;2.70;1.50;;;;;;;;;;5074993;28;20029;-69
2021/12/28 05:22:54;;;;;;;2.35;1.55;;;;;;;;;;5074682;28;20041;-70
2021/12/28 05:25:20;;;;;;;2.45;1.50;;;;;;;;;;5091737;28;20031;-70
2021/12/28 05:27:46;;;;;;;2.67;1.40;;;;;;;;;;5077507;28;20020;-69
2021/12/28 05:30:12;;;;;;;3.65;1.88;;;;;;;;;;5095009;28;20036;-72
2021/12/28 05:32:38;;;;;;;4.65;1.73;;;;;;;;;;5077108;28;20024;-70
2021/12/28 05:35:06;;;;;;;3.40;1.55;;;;;;;;;;5090235;28;20020;-71
2021/12/28 05:37:32;;;;;;;2.35;1.50;;;;;;;;;;5073325;28;20063;-70
2021/12/28 05:39:58;;;;;;;4.90;1.63;;;;;;;;;;5073536;28;20020;-70
2021/12/28 05:42:24;;;;;;;2.50;1.70;;;;;;;;;;5074712;28;20031;-69
2021/12/28 05:44:50;;;;;;;2.45;1.60;;;;;;;;;;5074452;28;20020;-71
2021/12/28 05:47:16;;;;;;;2.10;1.50;;;;;;;;;;5074584;28;20361;-71
2021/12/28 05:49:43;;;;;;;4.35;1.80;;;;;;;;;;5074651;28;20020;-70
2021/12/28 05:52:09;;;;;;;3.55;1.63;;;;;;;;;;5074566;28;20162;-71
2021/12/28 05:54:35;;;;;;;2.22;1.35;;;;;;;;;;5074243;28;20020;-70
2021/12/28 05:57:01;;;;;;;3.40;1.50;;;;;;;;;;5055261;28;20098;-71
2021/12/28 05:59:27;;;;;;;2.17;1.30;;;;;;;;;;5074067;28;20099;-71
2021/12/28 06:01:53;;;;;;;3.40;1.50;;;;;;;;;;5074235;28;20491;-70
2021/12/28 06:04:19;;;;;;;2.65;1.80;;;;;;;;;;5073920;28;20020;-69
2021/12/28 06:06:45;;;;;;;3.08;1.58;;;;;;;;;;5074030;28;20491;-70
2021/12/28 06:09:11;;;;;;;4.30;1.60;;;;;;;;;;5074084;28;20032;-68
2021/12/28 06:11:37;;;;;;;1.73;1.60;;;;;;;;;;5055983;28;20048;-70
2021/12/28 06:14:03;;;;;;;2.35;1.25;;;;;;;;;;5074319;28;20490;-70
2021/12/28 06:16:29;;;;;;;1.63;1.27;;;;;;;;;;5073692;28;20031;-67
2021/12/28 06:18:55;;;;;;;2.78;1.77;;;;;;;;;;5073518;28;20032;-70
2021/12/28 06:21:22;;;;;;;2.67;1.55;;;;;;;;;;5073836;28;20027;-67
2021/12/28 06:23:48;;;;;;;3.42;1.60;;;;;;;;;;5077838;28;20131;-71
2021/12/28 06:26:14;;;;;;;2.88;1.40;;;;;;;;;;5094207;28;20026;-70
2021/12/28 06:28:40;;;;;;;3.47;1.73;;;;;;;;;;5094175;28;20024;-71
2021/12/28 06:31:06;;;;;;;3.22;1.45;;;;;;;;;;5093879;28;20090;-71
2021/12/28 06:33:32;;;;;;;3.67;1.77;;;;;;;;;;5094050;28;20027;-70
2021/12/28 06:35:58;;;;;;;2.63;1.52;;;;;;;;;;5072144;28;20027;-69
2021/12/28 06:38:24;;;;;;;4.13;1.58;;;;;;;;;;5073734;28;20028;-71
2021/12/28 06:40:50;;;;;;;3.08;1.40;;;;;;;;;;5072219;28;20104;-68
2021/12/28 06:43:16;;;;;;;2.38;1.42;;;;;;;;;;5073611;28;20024;-65
2021/12/28 06:45:42;;;;;;;2.70;1.60;;;;;;;;;;5073435;28;20418;-67
2021/12/28 06:48:08;;;;;;;2.10;1.50;;;;;;;;;;5073704;28;20021;-70
2021/12/28 06:50:34;;;;;;;2.83;1.40;;;;;;;;;;5073382;28;20353;-69
2021/12/28 06:53:00;;;;;;;1.98;1.40;;;;;;;;;;5073048;28;20138;-68
2021/12/28 06:55:26;;;;;;;2.00;1.42;;;;;;;;;;5073210;28;20029;-70
2021/12/28 06:57:52;;;;;;;3.10;1.42;;;;;;;;;;5073043;28;20036;-71
2021/12/28 07:00:19;;;;;;;2.58;1.60;;;;;;;;;;5073208;28;20027;-69
2021/12/28 07:02:45;;;;;;;3.92;1.60;;;;;;;;;;5055022;28;20452;-67
2021/12/28 07:05:12;;;;;;;2.72;1.50;;;;;;;;;;5073395;28;20024;-70
2021/12/28 07:07:39;;;;;;;1.95;1.35;;;;;;;;;;5072780;28;20036;-71
2021/12/28 07:10:06;;;;;;;3.00;1.52;;;;;;;;;;5072784;28;20059;-70
2021/12/28 07:12:32;;;;;;;2.88;1.50;;;;;;;;;;5055304;28;20031;-67
2021/12/28 07:14:58;;;;;;;2.42;1.48;;;;;;;;;;5072965;28;20032;-68
2021/12/28 07:17:26;;;;;;;5.03;1.70;;;;;;;;;;5055370;28;20039;-68
2021/12/28 07:19:52;;;;;;;2.60;1.38;;;;;;;;;;5072645;28;20012;-69
2021/12/28 07:22:18;;;;;;;2.45;1.55;;;;;;;;;;5072854;28;20051;-69
2021/12/28 07:24:44;;;;;;;2.13;1.40;;;;;;;;;;5066969;28;20043;-68
2021/12/28 07:27:10;;;;;;;2.75;1.52;;;;;;;;;;5093020;28;20028;-69
2021/12/28 07:29:36;;;;;;;3.55;1.50;;;;;;;;;;5092929;28;20035;-68
2021/12/28 07:32:03;;;;;;;2.85;1.30;;;;;;;;;;5092803;28;20107;-68
2021/12/28 07:34:31;;;;;;;3.13;1.60;;;;;;;;;;5092731;28;20482;-68
2021/12/28 07:36:57;;;;;;;2.38;1.30;;;;;;;;;;5072595;28;20784;-69
2021/12/28 07:39:23;;;;;;;2.80;1.50;;;;;;;;;;5073073;28;20077;-71
2021/12/28 07:41:49;;;;;;;2.30;1.20;;;;;;;;;;5072427;28;20115;-71
2021/12/28 07:44:15;;;;;;;2.35;1.50;;;;;;;;;;5071587;28;20043;-70
2021/12/28 07:46:41;;;;;;;2.03;1.52;;;;;;;;;;5072837;28;20024;-71
2021/12/28 07:49:07;;;;;;;2.75;1.42;;;;;;;;;;5071356;28;20024;-69
2021/12/28 07:51:33;;;;;;;2.70;1.50;;;;;;;;;;5072493;28;20031;-70
2021/12/28 07:53:59;;;;;;;1.98;1.40;;;;;;;;;;5072754;28;20074;-67
2021/12/28 07:56:25;;;;;;;2.05;1.35;;;;;;;;;;5071108;28;20024;-69
2021/12/28 07:58:51;;;;;;;2.85;1.38;;;;;;;;;;5072727;28;20032;-68
2021/12/28 08:01:17;;;;;;;1.63;1.02;;;;;;;;;;5071371;28;20059;-69
2021/12/28 08:03:43;;;;;;;2.03;1.20;;;;;;;;;;5072689;28;20060;-72
2021/12/28 08:06:09;;;;;;;2.33;1.40;;;;;;;;;;5072921;28;20035;-69
2021/12/28 08:08:35;;;;;;;1.60;1.48;;;;;;;;;;5071441;28;20028;-69
2021/12/28 08:11:01;;;;;;;2.40;1.40;;;;;;;;;;5072598;28;20096;-70
2021/12/28 08:13:27;;;;;;;2.85;1.50;;;;;;;;;;5072432;28;20029;-68
2021/12/28 08:15:55;;;;;;;2.10;1.40;;;;;;;;;;5072214;28;20032;-70
2021/12/28 08:18:21;;;;;;;4.18;1.90;;;;;;;;;;5072232;28;20033;-70
2021/12/28 08:20:47;;;;;;;2.17;1.30;;;;;;;;;;5074469;28;20497;-69
2021/12/28 08:23:13;;;;;;;1.95;1.55;;;;;;;;;;5083327;28;20052;-70
2021/12/28 08:25:39;;;;;;;3.20;1.40;;;;;;;;;;5095816;28;20078;-67
2021/12/28 08:28:06;;;;;;;2.88;1.60;;;;;;;;;;5095737;28;20448;-70
2021/12/28 08:30:35;;;;;;;2.83;1.65;;;;;;;;;;5077952;28;20020;-69
2021/12/28 08:33:01;;;;;;;2.17;1.30;;;;;;;;;;5077407;28;20034;-69
2021/12/28 08:35:27;;;;;;;2.40;1.40;;;;;;;;;;5095917;28;20145;-69
2021/12/28 08:37:53;;;;;;;2.35;1.40;;;;;;;;;;5095634;28;20119;-70
2021/12/28 08:40:20;;;;;;;2.08;1.45;;;;;;;;;;5077602;28;20024;-69
2021/12/28 08:42:46;;;;;;;2.97;1.70;;;;;;;;;;5095645;28;20133;-70
2021/12/28 08:45:12;;;;;;;1.65;1.23;;;;;;;;;;5095351;28;20031;-68
2021/12/28 08:47:38;;;;;;;3.92;1.50;;;;;;;;;;5095265;28;20023;-69
2021/12/28 08:50:07;;;;;;;2.65;1.52;;;;;;;;;;5095701;28;20031;-71
2021/12/28 08:52:33;;;;;;;1.77;1.30;;;;;;;;;;5078940;28;20013;-71
2021/12/28 08:54:59;;;;;;;2.22;1.40;;;;;;;;;;5074959;28;20032;-68
2021/12/28 08:57:25;;;;;;;2.28;1.40;;;;;;;;;;5056932;28;20048;-70
2021/12/28 08:59:51;;;;;;;1.50;1.30;;;;;;;;;;5075560;28;20033;-70
2021/12/28 09:02:17;;;;;;;2.28;1.70;;;;;;;;;;5056996;28;20121;-69
2021/12/28 09:04:43;;;;;;;1.20;1.10;;;;;;;;;;5074822;28;20384;-68
2021/12/28 09:07:13;;;;;;;1.90;1.70;;;;;;;;;;5074962;28;20476;-70
2021/12/28 09:09:39;;;;;;;3.30;1.40;;;;;;;;;;5074813;28;20032;-69
2021/12/28 09:12:05;;;;;;;2.33;1.50;;;;;;;;;;5075062;28;20033;-72
2021/12/28 09:14:32;;;;;;;3.15;1.73;;;;;;;;;;5074683;28;20021;-70
2021/12/28 09:16:58;;;;;;;2.78;1.45;;;;;;;;;;5074678;28;20036;-68
2021/12/28 09:19:24;;;;;;;3.15;1.50;;;;;;;;;;5074763;28;20021;-72
2021/12/28 09:21:50;;;;;;;2.70;1.70;;;;;;;;;;5074613;28;20036;-70
2021/12/28 09:24:16;;;;;;;2.33;1.42;;;;;;;;;;5082771;28;20050;-72
2021/12/28 09:26:42;;;;;;;4.03;1.52;;;;;;;;;;5094660;28;20028;-70
2021/12/28 09:29:08;;;;;;;2.90;1.70;;;;;;;;;;5094682;28;20035;-70
2021/12/28 09:31:34;;;;;;;2.63;1.88;;;;;;;;;;5094681;28;20096;-70
2021/12/28 09:34:00;;;;;;;2.58;1.58;;;;;;;;;;5094926;28;20028;-70
2021/12/28 09:36:26;;;;;;;2.40;1.65;;;;;;;;;;5094310;28;20032;-72
2021/12/28 09:38:52;;;;;;;2.28;1.33;;;;;;;;;;5094715;28;20103;-71
2021/12/28 09:41:18;;;;;;;3.05;1.85;;;;;;;;;;5094604;28;20423;-71
2021/12/28 09:43:45;;;;;;;1.95;1.55;;;;;;;;;;5094525;28;20024;-71
2021/12/28 09:46:11;;;;;;;2.72;1.77;;;;;;;;;;5094512;28;20062;-71
2021/12/28 09:48:37;;;;;;;2.70;1.60;;;;;;;;;;5094334;28;20039;-71
2021/12/28 09:51:04;;;;;;;2.22;1.55;;;;;;;;;;5094418;28;20561;-72
2021/12/28 09:53:30;;;;;;;2.33;1.55;;;;;;;;;;5094412;28;20413;-71
2021/12/28 09:55:56;;;;;;;1.63;1.38;;;;;;;;;;5094361;28;20024;-71
2021/12/28 09:58:22;;;;;;;2.08;1.80;;;;;;;;;;5094199;28;20502;-71
2021/12/28 10:00:48;;;;;;;2.67;1.80;;;;;;;;;;5094348;28;20077;-71
2021/12/28 10:03:15;;;;;;;3.25;1.75;;;;;;;;;;5094186;28;20031;-71
2021/12/28 10:05:41;;;;;;;2.58;1.65;;;;;;;;;;5094086;28;20102;-70
2021/12/28 10:08:07;;;;;;;2.47;1.90;;;;;;;;;;5094269;28;20494;-72
2021/12/28 10:10:37;;;;;;;1.90;1.65;;;;;;;;;;5075690;28;20413;-70
2021/12/28 10:13:05;;;;;;;1.98;1.77;;;;;;;;;;5075681;28;20024;-71
2021/12/28 10:15:32;;;;;;;2.00;1.63;;;;;;;;;;5094103;28;20058;-69
2021/12/28 10:18:00;;;;;;;1.83;1.58;;;;;;;;;;5093765;28;20044;-71
2021/12/28 10:20:31;;;;;;;2.75;1.98;;;;;;;;;;5093627;28;20024;-71
2021/12/28 10:22:59;;;;;;;2.05;1.80;;;;;;;;;;5093585;28;20064;-69
2021/12/28 10:25:44;;;;;;;3.80;1.90;;;;;;;;;;5075588;28;20417;-71
2021/12/28 10:28:12;;;;;;;2.40;1.88;;;;;;;;;;5093659;28;20632;-70
2021/12/28 10:30:45;;;;;;;2.10;1.58;;;;;;;;;;5093905;28;20044;-71
2021/12/28 10:33:20;;;;;;;2.47;1.90;;;;;;;;;;5075331;28;20036;-71
2021/12/28 10:35:50;;;;;;;4.75;1.88;;;;;;;;;;5083347;28;20078;-71
2021/12/28 10:38:19;;;;;;;3.10;1.90;;;;;;;;;;5073262;28;20390;-71
2021/12/28 10:40:50;;;;;;;2.42;1.73;;;;;;;;;;5071840;28;20044;-71
2021/12/28 10:43:17;;;;;;;2.10;1.73;;;;;;;;;;5072491;28;20545;-71
2021/12/28 10:45:44;;;;;;;2.15;1.83;;;;;;;;;;5073053;28;20025;-72
2021/12/28 10:48:32;;;;;;;2.17;1.85;;;;;;;;;;5073036;28;20353;-69
2021/12/28 10:51:01;;;;;;;3.08;1.70;;;;;;;;;;5071570;28;20030;-70
2021/12/28 10:53:36;;;;;;;2.17;1.85;;;;;;;;;;5054882;28;20052;-71
2021/12/28 10:56:02;;;;;;;1.83;1.55;;;;;;;;;;5073049;28;20107;-71
2021/12/28 10:58:42;;;;;;;2.28;1.70;;;;;;;;;;5054471;28;20040;-71
2021/12/28 11:01:08;;;;;;;1.80;1.60;;;;;;;;;;5055108;28;20445;-71
2021/12/28 11:03:35;;;;;;;2.50;1.60;;;;;;;;;;5072785;28;20029;-72
2021/12/28 11:06:06;;;;;;;1.70;1.40;;;;;;;;;;5072766;28;20099;-71
2021/12/28 11:08:32;;;;;;;2.60;1.48;;;;;;;;;;5072624;28;20103;-69
2021/12/28 11:11:03;;;;;;;2.40;1.48;;;;;;;;;;5072651;28;20024;-71
2021/12/28 11:13:30;;;;;;;2.13;1.60;;;;;;;;;;5072096;28;20086;-70
2021/12/28 11:15:58;;;;;;;1.85;1.30;;;;;;;;;;5072180;28;20024;-70
2021/12/28 11:18:23;;;;;;;2.08;1.55;;;;;;;;;;5072264;28;20135;-70
2021/12/28 11:20:51;;;;;;;1.58;1.40;;;;;;;;;;5072227;28;20085;-71
2021/12/28 11:23:18;;;;;;;2.22;1.40;;;;;;;;;;5053925;28;20067;-71
2021/12/28 11:25:44;;;;;;;1.38;1.10;;;;;;;;;;5072418;28;20028;-70
2021/12/28 11:28:12;;;;;;;1.30;1.13;;;;;;;;;;5072200;28;20017;-70
2021/12/28 11:30:39;;;;;;;2.45;1.30;;;;;;;;;;5072093;28;20029;-72
2021/12/28 11:33:07;;;;;;;2.35;1.13;;;;;;;;;;5072020;28;20025;-71
2021/12/28 11:35:33;;;;;;;2.55;1.30;;;;;;;;;;5071978;28;20078;-70
2021/12/28 11:37:59;;;;;;;2.15;1.10;;;;;;;;;;5071829;28;20028;-69
2021/12/28 11:40:25;;;;;;;1.27;1.10;;;;;;;;;;5072320;28;20127;-69
2021/12/28 11:42:51;;;;;;;2.15;1.10;;;;;;;;;;5071716;28;20143;-69
2021/12/28 11:45:20;;;;;;;1.42;1.00;;;;;;;;;;5071976;28;20146;-71
2021/12/28 11:47:46;;;;;;;1.95;1.05;;;;;;;;;;5071756;28;20124;-70
2021/12/28 11:50:12;;;;;;;1.40;1.27;;;;;;;;;;5070489;28;20039;-70
2021/12/28 11:52:38;;;;;;;1.20;1.10;;;;;;;;;;5071830;28;20024;-71
2021/12/28 11:55:04;;;;;;;3.75;1.15;;;;;;;;;;5073302;28;20031;-69
2021/12/28 11:57:30;;;;;;;1.42;1.00;;;;;;;;;;5075740;28;20036;-69
2021/12/28 11:59:58;;;;;;;0.85;0.80;;;;;;;;;;5076594;28;20020;-68
2021/12/28 12:02:38;;;;;;;2.38;1.00;;;;;;;;;;5076457;28;20029;-69
2021/12/28 12:05:14;;;;;;;3.13;1.00;;;;;;;;;;5076103;28;20062;-69
2021/12/28 12:07:40;;;;;;;1.27;0.80;;;;;;;;;;5076388;28;20040;-68
2021/12/28 12:10:11;;;;;;;1.70;0.90;;;;;;;;;;5076507;28;20017;-69
2021/12/28 12:12:43;;;;;;;2.92;1.10;;;;;;;;;;5076069;28;20108;-69
2021/12/28 12:15:09;;;;;;;1.93;1.07;;;;;;;;;;5075924;28;20103;-68
2021/12/28 12:17:39;;;;;;;1.15;0.80;;;;;;;;;;5075582;28;20077;-68
2021/12/28 12:20:08;;;;;;;4.05;0.98;;;;;;;;;;5075818;28;20017;-69
2021/12/28 12:22:38;;;;;;;2.70;1.10;;;;;;;;;;5075355;28;20100;-69
2021/12/28 12:25:18;;;;;;;0.95;0.80;;;;;;;;;;5090631;28;20434;-69
2021/12/28 12:27:53;;;;;;;1.95;0.90;;;;;;;;;;5095894;28;20021;-68
2021/12/28 12:30:19;;;;;;;2.70;1.08;;;;;;;;;;5077346;28;20020;-68
2021/12/28 12:32:57;;;;;;;4.53;1.15;;;;;;;;;;5095717;28;20494;-69
2021/12/28 12:35:30;;;;;;;4.32;1.15;;;;;;;;;;5088347;28;20093;-68
2021/12/28 12:37:56;;;;;;;;;;;;;;;;;;5075441;28;20028;-69
2021/12/28 12:40:22;;;;;;;4.57;1.25;;;;;;;;;;5075504;28;20012;-67
2021/12/28 12:43:06;;;;;;;4.38;1.35;;;;;;;;;;5074950;28;20035;-68
2021/12/28 12:45:51;;;;;;;2.92;1.15;;;;;;;;;;5073684;28;20419;-68
2021/12/28 12:48:30;;;;;;;6.03;1.35;;;;;;;;;;5075054;28;20104;-69
2021/12/28 12:51:16;;;;;;;4.35;1.55;;;;;;;;;;5073312;28;20036;-69
2021/12/28 12:53:43;;;;;;;5.72;1.40;;;;;;;;;;5056371;28;20035;-69
2021/12/28 12:56:13;;;;;;;8.30;1.83;;;;;;;;;;5056440;28;20043;-68
2021/12/28 12:58:40;;;;;;;11.55;1.98;;;;;;;;;;5074380;28;20041;-68
2021/12/28 13:01:06;;;;;;;9.73;1.90;;;;;;;;;;5073983;28;20032;-69
2021/12/28 13:03:33;;;;;;;9.02;2.28;;;;;;;;;;5055535;28;20172;-69
2021/12/28 13:06:00;;;;;;;11.05;2.17;;;;;;;;;;5073050;28;20031;-69
2021/12/28 13:08:26;;;;;;;11.25;2.10;;;;;;;;;;5055382;28;20498;-68
2021/12/28 13:10:52;;;;;;;9.57;2.38;;;;;;;;;;5073325;28;20028;-69
2021/12/28 13:13:18;;;;;;;14.07;2.80;;;;;;;;;;5073059;28;20044;-69
2021/12/28 13:15:44;;;;;;;12.82;2.47;;;;;;;;;;5073608;28;20082;-69
2021/12/28 13:18:10;;;;;;;14.05;2.72;;;;;;;;;;5074376;28;20128;-69
2021/12/28 13:20:36;;;;;;;14.00;2.15;;;;;;;;;;5074676;28;20024;-69
2021/12/28 13:23:07;;;;;;;20.25;3.22;;;;;;;;;;5074215;28;20063;-69
2021/12/28 13:25:33;;;;;;;19.25;2.78;;;;;;;;;;5093015;28;20020;-68
2021/12/28 13:28:00;;;;;;;18.60;3.20;;;;;;;;;;5094379;28;20031;-68
2021/12/28 13:30:31;;;;;;;17.02;3.20;;;;;;;;;;5094105;28;20021;-69
2021/12/28 13:32:57;;;;;;;16.48;3.20;;;;;;;;;;5076127;28;20024;-68
2021/12/28 13:35:31;;;;;;;17.58;2.92;;;;;;;;;;5094415;28;20030;-69
2021/12/28 13:37:58;;;;;;;14.02;2.97;;;;;;;;;;5075742;28;20421;-69
2021/12/28 13:40:32;;;;;;;20.17;2.95;;;;;;;;;;5075894;28;20030;-69
2021/12/28 13:43:01;;;;;;;16.10;2.80;;;;;;;;;;5093578;28;20028;-69
2021/12/28 13:45:29;;;;;;;11.88;2.63;;;;;;;;;;5093430;28;20024;-69
2021/12/28 13:47:56;;;;;;;16.23;3.03;;;;;;;;;;5093512;28;20087;-68
2021/12/28 13:50:22;;;;;;;16.05;3.00;;;;;;;;;;5093371;28;20024;-71
2021/12/28 13:52:51;;;;;;;13.93;2.78;;;;;;;;;;5074867;28;20112;-71
2021/12/28 13:55:18;;;;;;;13.07;2.85;;;;;;;;;;5073473;28;20024;-68
2021/12/28 13:57:45;;;;;;;13.25;2.92;;;;;;;;;;5072951;28;20044;-69
2021/12/28 14:00:12;;;;;;;13.80;2.97;;;;;;;;;;5073076;28;20081;-69
2021/12/28 14:02:40;;;;;;;16.67;2.90;;;;;;;;;;5055098;28;20046;-69
2021/12/28 14:05:06;;;;;;;11.95;2.40;;;;;;;;;;5055132;28;20124;-68
2021/12/28 14:07:33;;;;;;;12.73;2.85;;;;;;;;;;5054834;28;20056;-68
2021/12/28 14:09:59;;;;;;;10.18;2.83;;;;;;;;;;5054944;28;20029;-69
2021/12/28 14:12:25;;;;;;;17.20;3.28;;;;;;;;;;5072968;28;20430;-69
2021/12/28 14:14:51;;;;;;;8.27;2.17;;;;;;;;;;5054970;28;20074;-70
2021/12/28 14:17:18;;;;;;;8.93;2.55;;;;;;;;;;5072082;28;20058;-70
2021/12/28 14:19:45;;;;;;;12.73;2.38;;;;;;;;;;5072417;28;20052;-72
2021/12/28 14:22:12;;;;;;;12.85;2.72;;;;;;;;;;5055234;28;20032;-72
2021/12/28 14:24:38;;;;;;;8.52;2.53;;;;;;;;;;5073997;28;20500;-72
2021/12/28 14:27:05;;;;;;;9.30;2.30;;;;;;;;;;5058672;28;20124;-72
2021/12/28 14:29:32;;;;;;;8.70;2.63;;;;;;;;;;5072130;28;20040;-68
2021/12/28 14:31:58;;;;;;;10.95;2.25;;;;;;;;;;5072610;28;20024;-71
2021/12/28 14:34:32;;;;;;;8.35;2.20;;;;;;;;;;5056271;28;20380;-79
2021/12/28 14:37:03;;;;;;;7.90;1.95;;;;;;;;;;5073783;28;20115;-75
2021/12/28 14:39:36;;;;;;;7.32;2.08;;;;;;;;;;5055205;28;20460;-71
2021/12/28 14:42:02;;;;;;;;;;;;;;;;;;5073361;28;20061;-72
2021/12/28 14:44:29;;;;;;;10.52;2.33;;;;;;;;;;5072857;28;19966;-73
2021/12/28 14:46:56;;;;;;;9.70;2.58;;;;;;;;;;5072628;28;20017;-72
2021/12/28 14:49:23;;;;;;;8.77;2.28;;;;;;;;;;5072403;28;20052;-71